createdAt,value
2019-01-04T00:01:35.212Z,94.39
2019-01-04T00:04:07.668Z,93.67
2019-01-04T00:06:36.624Z,93.97
2019-01-04T00:09:07.272Z,94.51
2019-01-04T00:11:38.400Z,94.67
2019-01-04T00:14:09.242Z,95.15
2019-01-04T00:16:39.490Z,95.52
2019-01-04T00:19:08.928Z,95.55
2019-01-04T00:21:39.558Z,95.17
2019-01-04T00:24:09.786Z,95.88
2019-01-04T00:26:39.041Z,95.98
2019-01-04T00:29:07.983Z,95.77
2019-01-04T00:31:37.224Z,95.65
2019-01-04T00:34:06.686Z,95.38
2019-01-04T00:36:36.108Z,95.00
2019-01-04T00:39:06.852Z,95.04
2019-01-04T00:41:37.419Z,94.91
2019-01-04T00:44:06.351Z,94.81
2019-01-04T00:46:35.627Z,95.19
2019-01-04T00:49:04.619Z,95.49
2019-01-04T00:51:34.081Z,95.26
2019-01-04T00:54:08.087Z,94.92
2019-01-04T00:57:35.792Z,94.84
2019-01-04T01:00:46.136Z,94.50
2019-01-04T01:04:07.329Z,95.00
2019-01-04T01:07:26.734Z,95.60
2019-01-04T01:10:19.433Z,95.74
2019-01-04T01:13:24.991Z,95.73
2019-01-04T01:16:43.272Z,95.89
2019-01-04T01:19:48.343Z,95.57
2019-01-04T01:22:57.182Z,95.09
2019-01-04T01:26:04.479Z,95.46
2019-01-04T01:29:19.222Z,95.80
2019-01-04T01:31:56.585Z,96.66
2019-01-04T01:35:04.960Z,97.56
2019-01-04T01:38:16.034Z,97.91
2019-01-04T01:40:58.578Z,98.25
2019-01-04T01:44:20.505Z,97.90
2019-01-04T01:47:02.317Z,98.42
2019-01-04T01:50:16.858Z,98.34
2019-01-04T01:52:50.492Z,98.43
2019-01-04T01:55:22.725Z,98.86
2019-01-04T01:57:51.673Z,98.22
2019-01-04T02:00:20.878Z,98.27
2019-01-04T02:02:53.066Z,98.53
2019-01-04T02:05:22.015Z,98.12
2019-01-04T02:07:52.121Z,98.39
2019-01-04T02:10:21.085Z,98.51
2019-01-04T02:12:50.044Z,98.65
2019-01-04T02:15:21.277Z,98.86
2019-01-04T02:17:50.507Z,98.56
2019-01-04T02:20:19.464Z,98.21
2019-01-04T02:22:54.031Z,97.96
2019-01-04T02:25:25.205Z,96.91
2019-01-04T02:27:54.134Z,97.30
2019-01-04T02:30:23.648Z,97.44
2019-01-04T02:32:54.147Z,96.72
2019-01-04T02:35:24.097Z,97.85
2019-01-04T02:37:54.071Z,98.00
2019-01-04T02:40:23.019Z,97.76
2019-01-04T02:42:55.026Z,97.53
2019-01-04T02:45:24.702Z,97.32
2019-01-04T02:47:54.057Z,97.45
2019-01-04T02:50:23.317Z,96.62
2019-01-04T02:52:54.602Z,96.20
2019-01-04T02:55:24.180Z,95.67
2019-01-04T02:57:57.830Z,95.30
2019-01-04T03:00:28.368Z,95.26
2019-01-04T03:02:58.300Z,94.98
2019-01-04T03:05:29.358Z,94.68
2019-01-04T03:08:00.306Z,94.48
2019-01-04T03:10:29.482Z,94.23
2019-01-04T03:12:59.584Z,93.62
2019-01-04T03:15:30.782Z,93.14
2019-01-04T03:17:59.715Z,92.88
2019-01-04T03:20:29.822Z,92.33
2019-01-04T03:23:03.060Z,94.48
2019-01-04T03:25:34.624Z,94.74
2019-01-04T03:28:05.654Z,95.57
2019-01-04T03:30:35.652Z,96.00
2019-01-04T03:33:06.476Z,96.50
2019-01-04T03:35:45.877Z,96.94
2019-01-04T03:38:17.206Z,97.68
2019-01-04T03:40:48.170Z,97.77
2019-01-04T03:43:18.170Z,97.26
2019-01-04T03:45:49.260Z,96.89
2019-01-04T03:48:20.004Z,96.36
2019-01-04T03:50:49.198Z,95.77
2019-01-04T03:53:19.640Z,95.19
2019-01-04T03:55:50.513Z,95.12
2019-01-04T03:58:19.749Z,95.06
2019-01-04T04:00:48.892Z,95.86
2019-01-04T04:03:18.649Z,96.05
2019-01-04T04:05:47.598Z,95.57
2019-01-04T04:08:17.326Z,95.96
2019-01-04T04:10:46.272Z,96.07
2019-01-04T04:13:16.606Z,96.41
2019-01-04T04:15:45.502Z,96.41
2019-01-04T04:18:16.433Z,96.10
2019-01-04T04:20:45.398Z,95.46
2019-01-04T04:23:14.814Z,94.62
2019-01-04T04:25:43.763Z,94.43
2019-01-04T04:28:12.974Z,94.29
2019-01-04T04:30:42.676Z,93.73
2019-01-04T04:33:11.632Z,95.46
2019-01-04T04:35:40.795Z,96.29
2019-01-04T04:38:11.806Z,96.62
2019-01-04T04:40:41.087Z,96.77
2019-01-04T04:43:12.327Z,97.69
2019-01-04T04:45:42.446Z,97.79
2019-01-04T04:48:14.299Z,98.65
2019-01-04T04:50:43.269Z,97.55
2019-01-04T04:53:14.343Z,98.45
2019-01-04T04:55:43.570Z,98.34
2019-01-04T04:58:12.651Z,98.67
2019-01-04T05:00:42.997Z,98.76
2019-01-04T05:03:14.607Z,99.53
2019-01-04T05:05:43.954Z,99.43
2019-01-04T05:08:14.053Z,99.65
2019-01-04T05:10:43.313Z,99.77
2019-01-04T05:13:12.463Z,99.75
2019-01-04T05:15:42.695Z,99.84
2019-01-04T05:18:12.762Z,99.61
2019-01-04T05:20:43.425Z,99.20
2019-01-04T05:23:13.087Z,98.85
2019-01-04T05:25:41.957Z,98.69
2019-01-04T05:28:11.151Z,98.27
2019-01-04T05:30:40.345Z,98.11
2019-01-04T05:33:11.598Z,99.08
2019-01-04T05:35:41.092Z,99.25
2019-01-04T05:38:10.070Z,99.42
2019-01-04T05:40:41.570Z,99.19
2019-01-04T05:43:11.784Z,97.75
2019-01-04T05:45:40.737Z,98.22
2019-01-04T05:48:12.331Z,98.58
2019-01-04T05:50:41.301Z,98.56
2019-01-04T05:53:10.727Z,98.64
2019-01-04T05:55:41.928Z,98.93
2019-01-04T05:58:11.152Z,99.07
2019-01-04T06:00:40.100Z,98.90
2019-01-04T06:03:11.354Z,97.89
2019-01-04T06:05:42.291Z,97.74
2019-01-04T06:08:11.465Z,97.25
2019-01-04T06:10:41.151Z,97.20
2019-01-04T06:13:12.947Z,96.81
2019-01-04T06:15:42.568Z,96.63
2019-01-04T06:18:12.167Z,96.28
2019-01-04T06:20:41.124Z,96.12
2019-01-04T06:23:10.110Z,94.96
2019-01-04T06:25:39.834Z,95.60
2019-01-04T06:28:08.796Z,96.24
2019-01-04T06:30:38.028Z,96.81
2019-01-04T06:33:07.016Z,97.43
2019-01-04T06:35:35.953Z,97.40
2019-01-04T06:38:05.134Z,97.66
2019-01-04T06:40:34.139Z,97.44
2019-01-04T06:43:03.098Z,97.14
2019-01-04T06:45:32.070Z,96.32
2019-01-04T06:48:02.474Z,95.68
2019-01-04T06:50:32.486Z,95.03
2019-01-04T06:53:01.817Z,95.37
2019-01-04T06:56:03.391Z,96.16
2019-01-04T06:58:33.110Z,96.00
2019-01-04T07:01:02.293Z,96.43
2019-01-04T07:03:31.504Z,96.43
2019-01-04T07:06:00.712Z,96.37
2019-01-04T07:08:31.898Z,95.64
2019-01-04T07:11:01.554Z,94.80
2019-01-04T07:13:30.514Z,93.98
2019-01-04T07:16:00.486Z,94.00
2019-01-04T07:18:29.902Z,94.79
2019-01-04T07:20:59.132Z,93.94
2019-01-04T07:23:28.033Z,93.94
2019-01-04T07:25:58.013Z,95.48
2019-01-04T07:28:28.809Z,95.99
2019-01-04T07:30:59.186Z,96.88
2019-01-04T07:33:28.851Z,95.37
2019-01-04T07:35:57.808Z,96.42
2019-01-04T07:38:26.994Z,96.84
2019-01-04T07:40:55.969Z,96.63
2019-01-04T07:43:27.147Z,96.54
2019-01-04T07:45:56.974Z,96.01
2019-01-04T07:48:26.958Z,95.78
2019-01-04T07:50:57.309Z,95.34
2019-01-04T07:53:26.559Z,95.06
2019-01-04T07:55:57.371Z,94.40
2019-01-04T07:58:26.553Z,95.50
2019-01-04T08:00:55.331Z,93.88
2019-01-04T08:03:26.346Z,95.02
2019-01-04T08:05:58.387Z,94.04
2019-01-04T08:08:27.535Z,94.08
2019-01-04T08:10:58.819Z,94.86
2019-01-04T08:13:30.985Z,94.49
2019-01-04T08:16:00.168Z,95.52
2019-01-04T08:18:29.909Z,95.99
2019-01-04T08:21:02.680Z,96.76
2019-01-04T08:23:31.941Z,97.65
2019-01-04T08:26:00.885Z,96.84
2019-01-04T08:28:29.849Z,96.54
2019-01-04T08:30:58.814Z,96.98
2019-01-04T08:33:28.947Z,96.27
2019-01-04T08:36:02.546Z,96.89
2019-01-04T08:38:31.836Z,96.13
2019-01-04T08:41:02.171Z,96.52
2019-01-04T08:43:31.440Z,96.78
2019-01-04T08:46:01.544Z,97.30
2019-01-04T08:48:31.524Z,95.84
2019-01-04T08:51:00.891Z,96.05
2019-01-04T08:54:00.824Z,95.46
2019-01-04T08:56:45.467Z,93.60
2019-01-04T08:59:15.478Z,94.10
2019-01-04T09:01:47.841Z,94.60
2019-01-04T09:04:17.274Z,93.23
2019-01-04T09:06:50.050Z,94.10
2019-01-04T09:09:19.290Z,93.51
2019-01-04T09:11:51.048Z,94.37
2019-01-04T09:14:21.563Z,95.22
2019-01-04T09:17:00.081Z,94.17
2019-01-04T09:19:31.090Z,93.84
2019-01-04T09:22:02.583Z,92.82
2019-01-04T09:24:31.816Z,94.01
2019-01-04T09:27:04.100Z,95.89
2019-01-04T09:29:35.154Z,94.07
2019-01-04T09:32:08.385Z,94.53
2019-01-04T09:34:37.462Z,94.02
2019-01-04T09:37:10.741Z,94.01
2019-01-04T09:39:40.379Z,92.20
2019-01-04T09:42:15.730Z,93.46
2019-01-04T09:44:46.766Z,93.44
2019-01-04T09:47:17.976Z,93.59
2019-01-04T09:49:52.404Z,94.97
2019-01-04T09:52:22.535Z,94.63
2019-01-04T09:54:51.678Z,93.95
2019-01-04T09:57:23.533Z,94.03
2019-01-04T09:59:52.549Z,94.67
2019-01-04T10:02:21.475Z,94.78
2019-01-04T10:04:50.427Z,95.39
2019-01-04T10:07:19.890Z,96.18
2019-01-04T10:09:49.611Z,94.89
2019-01-04T10:12:19.108Z,93.96
2019-01-04T10:14:50.116Z,94.16
2019-01-04T10:17:19.927Z,93.77
2019-01-04T10:19:49.843Z,94.51
2019-01-04T10:22:27.476Z,94.19
2019-01-04T10:24:59.353Z,94.10
2019-01-04T10:27:30.610Z,92.03
2019-01-04T10:30:09.608Z,93.18
2019-01-04T10:32:40.023Z,92.58
2019-01-04T10:35:10.716Z,92.02
2019-01-04T10:37:44.335Z,92.07
2019-01-04T10:40:15.122Z,91.84
2019-01-04T10:42:46.555Z,91.69
2019-01-04T10:45:16.679Z,91.48
2019-01-04T10:47:49.513Z,90.86
2019-01-04T10:50:23.062Z,90.20
2019-01-04T10:52:55.193Z,91.71
2019-01-04T10:55:26.544Z,89.18
2019-01-04T10:57:58.851Z,86.88
2019-01-04T11:00:32.112Z,83.60
2019-01-04T11:03:05.665Z,84.08
2019-01-04T11:05:36.154Z,82.67
2019-01-04T11:08:05.115Z,82.59
2019-01-04T11:10:38.184Z,82.62
2019-01-04T11:13:22.274Z,80.42
2019-01-04T11:16:00.996Z,81.03
2019-01-04T11:18:31.796Z,82.98
2019-01-04T11:21:07.810Z,82.26
2019-01-04T11:24:21.525Z,82.98
2019-01-04T11:27:09.232Z,81.10
2019-01-04T11:30:25.453Z,80.27
2019-01-04T11:33:27.331Z,81.38
2019-01-04T11:36:40.269Z,80.03
2019-01-04T11:39:29.996Z,81.44
2019-01-04T11:42:47.250Z,80.21
2019-01-04T11:46:06.248Z,78.97
2019-01-04T11:48:46.410Z,79.91
2019-01-04T11:52:17.761Z,79.15
2019-01-04T11:54:46.892Z,78.56
2019-01-04T11:57:15.832Z,80.50
2019-01-04T11:59:45.029Z,75.72
2019-01-04T12:02:16.646Z,75.84
2019-01-04T12:04:47.606Z,77.31
2019-01-04T12:07:18.410Z,75.45
2019-01-04T12:09:51.845Z,74.36
2019-01-04T12:12:20.618Z,76.86
2019-01-04T12:14:50.905Z,76.53
2019-01-04T12:17:25.959Z,74.74
2019-01-04T12:19:59.309Z,74.60
2019-01-04T12:22:30.048Z,74.27
2019-01-04T12:24:59.545Z,72.32
2019-01-04T12:27:29.085Z,73.53
2019-01-04T12:29:59.165Z,72.96
2019-01-04T12:32:28.931Z,73.31
2019-01-04T12:34:57.882Z,72.53
2019-01-04T12:37:27.337Z,75.66
2019-01-04T12:39:56.269Z,74.09
2019-01-04T12:42:25.245Z,73.63
2019-01-04T12:44:55.182Z,74.38
2019-01-04T12:47:25.187Z,72.80
2019-01-04T12:49:56.248Z,72.59
2019-01-04T12:52:25.225Z,74.77
2019-01-04T12:55:06.222Z,75.50
2019-01-04T12:57:37.119Z,75.95
2019-01-04T13:00:10.933Z,75.89
2019-01-04T13:02:43.713Z,76.89
2019-01-04T13:05:12.625Z,75.00
2019-01-04T13:07:42.132Z,75.86
2019-01-04T13:10:12.332Z,76.57
2019-01-04T13:12:41.356Z,76.01
2019-01-04T13:15:10.543Z,75.20
2019-01-04T13:17:40.707Z,74.31
2019-01-04T13:20:10.430Z,75.25
2019-01-04T13:22:40.040Z,76.33
2019-01-04T13:25:08.990Z,74.17
2019-01-04T13:27:39.185Z,74.21
2019-01-04T13:30:08.113Z,72.70
2019-01-04T13:32:37.424Z,74.04
2019-01-04T13:35:06.635Z,74.76
2019-01-04T13:37:36.563Z,75.19
2019-01-04T13:40:09.068Z,75.71
2019-01-04T13:42:37.982Z,76.39
2019-01-04T13:45:09.678Z,76.73
2019-01-04T13:47:38.903Z,78.17
2019-01-04T13:50:09.014Z,79.12
2019-01-04T13:52:38.934Z,79.63
2019-01-04T13:55:08.119Z,79.37
2019-01-04T13:57:38.116Z,79.48
2019-01-04T14:00:10.471Z,79.03
2019-01-04T14:02:41.162Z,80.07
2019-01-04T14:05:10.852Z,79.37
2019-01-04T14:07:39.985Z,79.63
2019-01-04T14:10:17.968Z,78.87
2019-01-04T14:12:46.957Z,79.85
2019-01-04T14:15:16.672Z,78.95
2019-01-04T14:17:48.196Z,79.40
2019-01-04T14:20:19.345Z,79.69
2019-01-04T14:22:49.932Z,79.15
2019-01-04T14:25:19.134Z,79.50
2019-01-04T14:27:50.370Z,78.92
2019-01-04T14:30:24.454Z,78.37
2019-01-04T14:32:53.769Z,78.47
2019-01-04T14:35:23.955Z,78.31
2019-01-04T14:37:53.812Z,78.24
2019-01-04T14:40:25.229Z,78.19
2019-01-04T14:42:56.867Z,75.82
2019-01-04T14:45:32.024Z,76.90
2019-01-04T14:48:02.835Z,77.91
2019-01-04T14:50:32.658Z,76.31
2019-01-04T14:53:01.575Z,77.13
2019-01-04T14:55:30.743Z,76.97
2019-01-04T14:58:02.445Z,77.50
2019-01-04T15:00:31.375Z,78.27
2019-01-04T15:03:01.431Z,78.66
2019-01-04T15:05:32.758Z,78.75
2019-01-04T15:08:01.932Z,78.91
2019-01-04T15:10:30.955Z,79.39
2019-01-04T15:13:02.258Z,78.64
2019-01-04T15:15:33.124Z,78.71
2019-01-04T15:18:07.610Z,79.15
2019-01-04T15:20:52.421Z,79.99
2019-01-04T15:23:22.902Z,80.98
2019-01-04T15:25:54.118Z,80.35
2019-01-04T15:28:31.991Z,80.42
2019-01-04T15:31:15.909Z,80.29
2019-01-04T15:33:48.217Z,79.85
2019-01-04T15:36:19.456Z,80.10
2019-01-04T15:38:53.076Z,80.33
2019-01-04T15:41:25.673Z,81.01
2019-01-04T15:44:00.567Z,80.91
2019-01-04T15:46:32.682Z,80.71
2019-01-04T15:49:03.057Z,80.64
2019-01-04T15:51:53.203Z,81.07
2019-01-04T15:54:23.359Z,82.00
2019-01-04T15:57:03.507Z,82.11
2019-01-04T15:59:34.084Z,81.26
2019-01-04T16:02:08.514Z,81.49
2019-01-04T16:04:37.426Z,81.50
2019-01-04T16:07:09.235Z,80.96
2019-01-04T16:12:49.359Z,81.82
2019-01-04T16:15:22.738Z,81.83
2019-01-04T16:17:58.154Z,82.62
2019-01-04T16:20:37.048Z,82.79
2019-01-04T16:23:07.158Z,81.20
2019-01-04T16:25:39.318Z,82.01
2019-01-04T16:28:21.553Z,81.66
2019-01-04T16:31:00.722Z,82.11
2019-01-04T16:33:32.434Z,81.75
2019-01-04T16:36:33.603Z,81.93
2019-01-04T16:39:03.437Z,82.01
2019-01-04T16:41:35.646Z,82.73
2019-01-04T16:44:07.426Z,83.08
2019-01-04T16:46:40.044Z,82.94
2019-01-04T16:49:09.028Z,83.44
2019-01-04T16:51:37.972Z,83.29
2019-01-04T16:54:06.911Z,84.01
2019-01-04T16:56:38.749Z,84.87
2019-01-04T16:59:08.473Z,85.17
2019-01-04T17:01:37.961Z,84.96
2019-01-04T17:04:06.963Z,84.36
2019-01-04T17:06:38.157Z,84.96
2019-01-04T17:09:09.335Z,85.26
2019-01-04T17:11:39.330Z,84.91
2019-01-04T17:14:09.169Z,84.86
2019-01-04T17:16:40.327Z,83.66
2019-01-04T17:19:09.480Z,84.70
2019-01-04T17:21:38.447Z,84.62
2019-01-04T17:24:19.873Z,84.92
2019-01-04T17:26:49.211Z,84.57
2019-01-04T17:29:18.200Z,84.41
2019-01-04T17:31:48.499Z,84.21
2019-01-04T17:34:18.776Z,84.49
2019-01-04T17:36:48.814Z,84.70
2019-01-04T17:39:36.195Z,84.36
2019-01-04T17:42:07.678Z,84.45
2019-01-04T17:44:36.907Z,85.09
2019-01-04T17:47:05.813Z,84.93
2019-01-04T17:49:37.851Z,84.99
2019-01-04T17:52:08.140Z,85.57
2019-01-04T17:54:37.721Z,85.02
2019-01-04T17:57:07.489Z,86.03
2019-01-04T17:59:37.545Z,85.55
2019-01-04T18:02:10.135Z,86.13
2019-01-04T18:04:44.488Z,86.58
2019-01-04T18:07:16.071Z,85.20
2019-01-04T18:10:06.581Z,85.59
2019-01-04T18:12:36.390Z,85.33
2019-01-04T18:15:46.213Z,86.31
2019-01-04T18:18:21.091Z,87.06
2019-01-04T18:20:53.113Z,86.78
2019-01-04T18:23:29.102Z,86.60
2019-01-04T18:25:59.435Z,87.58
2019-01-04T18:28:31.763Z,87.99
2019-01-04T18:31:04.290Z,89.09
2019-01-04T18:33:34.058Z,88.20
2019-01-04T18:36:05.099Z,88.04
2019-01-04T18:38:36.962Z,88.45
2019-01-04T18:41:08.685Z,88.85
2019-01-04T18:43:40.668Z,90.61
2019-01-04T18:46:12.529Z,87.26
2019-01-04T18:48:54.005Z,87.22
2019-01-04T18:51:25.232Z,87.71
2019-01-04T18:53:56.532Z,87.94
2019-01-04T18:56:28.966Z,88.67
2019-01-04T18:59:04.134Z,88.59
2019-01-04T19:01:33.334Z,89.23
2019-01-04T19:04:05.372Z,87.92
2019-01-04T19:06:35.428Z,87.50
2019-01-04T19:09:08.021Z,88.54
2019-01-04T19:11:36.988Z,87.45
2019-01-04T19:14:08.583Z,88.40
2019-01-04T19:16:38.672Z,88.62
2019-01-04T19:19:13.621Z,89.27
2019-01-04T19:21:54.393Z,90.14
2019-01-04T19:24:24.048Z,90.17
2019-01-04T19:26:54.984Z,91.10
2019-01-04T19:29:27.066Z,91.00
2019-01-04T19:32:02.267Z,91.46
2019-01-04T19:34:31.201Z,91.29
2019-01-04T19:37:01.262Z,92.01
2019-01-04T19:39:31.811Z,90.98
2019-01-04T19:42:01.055Z,91.44
2019-01-04T19:44:30.470Z,92.07
2019-01-04T19:47:03.397Z,91.71
2019-01-04T19:49:33.592Z,93.08
2019-01-04T19:52:02.591Z,92.88
2019-01-04T19:54:31.528Z,92.48
2019-01-04T19:57:01.831Z,92.56
2019-01-04T19:59:32.616Z,92.75
2019-01-04T20:02:04.030Z,92.11
2019-01-04T20:04:35.764Z,90.95
2019-01-04T20:07:59.142Z,91.48
2019-01-04T20:11:34.913Z,91.69
2019-01-04T20:14:59.259Z,90.38
2019-01-04T20:17:53.880Z,90.90
2019-01-04T20:20:56.248Z,90.96
2019-01-04T20:23:43.413Z,90.84
2019-01-04T20:26:39.614Z,90.39
2019-01-04T20:29:40.864Z,90.82
2019-01-04T20:32:30.027Z,89.69
2019-01-04T20:35:23.724Z,90.39
2019-01-04T20:38:10.361Z,90.13
2019-01-04T20:41:01.040Z,89.73
2019-01-04T20:43:51.166Z,90.40
2019-01-04T20:46:55.411Z,89.68
2019-01-04T20:49:49.002Z,89.82
2019-01-04T20:52:38.467Z,88.75
2019-01-04T20:55:28.470Z,88.95
2019-01-04T20:58:13.928Z,88.65
2019-01-04T21:01:00.990Z,88.33
2019-01-04T21:03:58.368Z,88.14
2019-01-04T21:09:52.011Z,88.13
2019-01-04T21:12:42.109Z,88.88
2019-01-04T21:15:42.332Z,87.71
2019-01-04T21:18:37.800Z,88.66
2019-01-04T21:21:43.690Z,88.50
2019-01-04T21:24:41.166Z,88.16
2019-01-04T21:27:38.362Z,88.99
2019-01-04T21:30:25.323Z,88.47
2019-01-04T21:33:12.183Z,89.30
2019-01-04T21:35:56.326Z,90.03
2019-01-04T21:38:42.916Z,89.26
2019-01-04T21:41:25.254Z,89.73
2019-01-04T21:44:31.693Z,89.82
2019-01-04T21:47:18.441Z,90.25
2019-01-04T21:50:15.400Z,90.10
2019-01-04T21:53:04.055Z,89.94
2019-01-04T21:55:51.078Z,90.52
2019-01-04T21:58:45.411Z,91.00
2019-01-04T22:01:51.892Z,90.34
2019-01-04T22:04:38.775Z,90.98
2019-01-04T22:07:25.662Z,91.36
2019-01-04T22:10:12.461Z,91.25
2019-01-04T22:13:09.808Z,91.08
2019-01-04T22:15:58.539Z,90.75
2019-01-04T22:18:45.071Z,91.11
2019-01-04T22:21:31.673Z,91.14
2019-01-04T22:24:18.431Z,91.31
2019-01-04T22:27:05.244Z,91.41
2019-01-04T22:29:56.547Z,91.29
2019-01-04T22:32:50.576Z,91.10
2019-01-04T22:35:27.566Z,91.05
2019-01-04T22:38:15.622Z,90.85
2019-01-04T22:41:06.512Z,91.51
2019-01-04T22:44:04.290Z,91.43
2019-01-04T22:46:53.914Z,91.63
2019-01-04T22:49:40.686Z,90.85
2019-01-04T22:52:27.355Z,91.66
2019-01-04T22:55:14.423Z,91.48
2019-01-04T22:58:12.588Z,92.21
2019-01-04T23:01:03.044Z,92.26
2019-01-04T23:03:40.219Z,91.71
2019-01-04T23:06:44.289Z,91.46
2019-01-04T23:09:32.336Z,91.94
2019-01-04T23:12:29.667Z,91.99
2019-01-04T23:15:20.953Z,91.53
2019-01-04T23:18:08.965Z,91.27
2019-01-04T23:21:03.144Z,91.08
2019-01-04T23:23:51.142Z,90.93
2019-01-04T23:26:38.274Z,91.60
2019-01-04T23:29:26.424Z,90.89
2019-01-04T23:32:12.624Z,91.08
2019-01-04T23:34:59.310Z,90.36
2019-01-04T23:37:56.413Z,91.61
2019-01-04T23:40:59.577Z,92.19
2019-01-04T23:43:40.392Z,92.71
2019-01-04T23:46:30.461Z,92.55
2019-01-04T23:49:29.883Z,93.49
2019-01-04T23:52:21.078Z,93.20
2019-01-04T23:55:09.109Z,91.69
2019-01-04T23:57:56.650Z,92.43
